createdAt,value
2023-01-04T00:01:34.090Z,12.23
2023-01-04T00:04:02.033Z,12.24
2023-01-04T00:06:29.983Z,12.25
2023-01-04T00:08:57.742Z,12.24
2023-01-04T00:11:25.819Z,12.26
2023-01-04T00:13:59.253Z,12.25
2023-01-04T00:16:29.024Z,12.27
2023-01-04T00:18:58.128Z,12.26
2023-01-04T00:21:31.444Z,12.27
2023-01-04T00:24:01.270Z,12.28
2023-01-04T00:26:32.674Z,12.28
2023-01-04T00:29:06.490Z,12.30
2023-01-04T00:31:35.499Z,12.28
2023-01-04T00:34:05.788Z,12.29
2023-01-04T00:36:34.236Z,12.30
2023-01-04T00:39:09.082Z,12.29
2023-01-04T00:42:02.906Z,12.29
2023-01-04T00:44:35.322Z,12.28
2023-01-04T00:47:04.221Z,12.29
2023-01-04T00:49:32.903Z,12.27
2023-01-04T00:52:00.794Z,12.28
2023-01-04T00:54:28.825Z,12.27
2023-01-04T00:56:58.483Z,12.27
2023-01-04T00:59:26.252Z,12.25
2023-01-04T01:01:54.574Z,12.26
2023-01-04T01:04:24.352Z,12.26
2023-01-04T01:06:52.810Z,12.25
2023-01-04T01:09:24.377Z,12.23
2023-01-04T01:11:53.195Z,12.21
2023-01-04T01:14:25.386Z,12.21
2023-01-04T01:16:56.612Z,12.21
2023-01-04T01:19:28.555Z,12.21
2023-01-04T01:21:57.756Z,12.21
2023-01-04T01:24:27.360Z,12.21
2023-01-04T01:26:56.144Z,12.20
2023-01-04T01:29:24.478Z,12.20
2023-01-04T01:31:52.591Z,12.17
2023-01-04T01:34:20.848Z,12.16
2023-01-04T01:36:49.309Z,12.15
2023-01-04T01:39:17.070Z,12.13
2023-01-04T01:41:45.112Z,12.13
2023-01-04T01:44:12.749Z,12.13
2023-01-04T01:46:47.114Z,12.12
2023-01-04T01:49:27.303Z,12.10
2023-01-04T01:51:59.032Z,12.07
2023-01-04T01:54:34.439Z,12.06
2023-01-04T01:57:07.403Z,12.06
2023-01-04T01:59:40.474Z,12.05
2023-01-04T02:02:09.076Z,12.05
2023-01-04T02:04:43.094Z,12.06
2023-01-04T02:07:14.756Z,12.04
2023-01-04T02:09:43.848Z,12.06
2023-01-04T02:12:13.180Z,12.07
2023-01-04T02:14:45.525Z,12.08
2023-01-04T02:17:34.338Z,12.10
2023-01-04T02:20:35.561Z,12.13
2023-01-04T02:23:34.252Z,12.15
2023-01-04T02:26:37.447Z,12.17
2023-01-04T02:29:26.506Z,12.17
2023-01-04T02:32:01.362Z,12.19
2023-01-04T02:35:00.718Z,12.20
2023-01-04T02:38:10.590Z,12.21
2023-01-04T02:41:06.965Z,12.20
2023-01-04T02:44:17.683Z,12.18
2023-01-04T02:46:55.649Z,12.13
2023-01-04T02:49:42.482Z,12.08
2023-01-04T02:52:10.355Z,12.07
2023-01-04T02:54:39.343Z,12.07
2023-01-04T02:57:34.041Z,12.08
2023-01-04T03:00:13.627Z,12.10
2023-01-04T03:03:31.847Z,12.13
2023-01-04T03:06:31.271Z,12.15
2023-01-04T03:09:30.576Z,12.17
2023-01-04T03:12:24.424Z,12.18
2023-01-04T03:15:00.395Z,12.21
2023-01-04T03:17:37.485Z,12.23
2023-01-04T03:20:09.734Z,12.24
2023-01-04T03:23:02.104Z,12.26
2023-01-04T03:25:58.594Z,12.28
2023-01-04T03:28:51.202Z,12.29
2023-01-04T03:31:54.866Z,12.31
2023-01-04T03:34:41.650Z,12.32
2023-01-04T03:37:18.447Z,12.33
2023-01-04T03:40:24.353Z,12.32
2023-01-04T03:43:32.842Z,12.33
2023-01-04T03:46:54.553Z,12.34
2023-01-04T03:49:35.108Z,12.34
2023-01-04T03:52:06.052Z,12.32
2023-01-04T03:54:39.721Z,12.33
2023-01-04T03:57:10.487Z,12.34
2023-01-04T03:59:55.596Z,12.36
2023-01-04T04:02:29.086Z,12.38
2023-01-04T04:05:15.868Z,12.38
2023-01-04T04:08:02.213Z,12.36
2023-01-04T04:10:30.013Z,12.35
2023-01-04T04:12:57.736Z,12.33
2023-01-04T04:15:25.437Z,12.31
2023-01-04T04:17:53.195Z,12.30
2023-01-04T04:20:20.959Z,12.29
2023-01-04T04:22:48.614Z,12.29
2023-01-04T04:25:16.387Z,12.28
2023-01-04T04:27:44.095Z,12.29
2023-01-04T04:30:12.266Z,12.29
2023-01-04T04:32:39.955Z,12.30
2023-01-04T04:35:08.466Z,12.30
2023-01-04T04:37:37.186Z,12.31
2023-01-04T04:40:06.530Z,12.31
2023-01-04T04:42:34.225Z,12.32
2023-01-04T04:45:01.996Z,12.35
2023-01-04T04:47:29.678Z,12.35
2023-01-04T04:49:57.374Z,12.35
2023-01-04T04:52:41.719Z,12.36
2023-01-04T04:55:09.855Z,12.38
2023-01-04T04:57:37.623Z,12.39
2023-01-04T05:00:06.646Z,12.40
2023-01-04T05:02:34.703Z,12.42
2023-01-04T05:05:02.673Z,12.43
2023-01-04T05:07:30.423Z,12.43
2023-01-04T05:09:58.140Z,12.44
2023-01-04T05:12:44.542Z,12.46
2023-01-04T05:15:12.247Z,12.47
2023-01-04T05:17:39.935Z,12.48
2023-01-04T05:20:08.695Z,12.50
2023-01-04T05:22:36.389Z,12.52
2023-01-04T05:25:04.485Z,12.53
2023-01-04T05:27:32.231Z,12.54
2023-01-04T05:30:18.415Z,12.55
2023-01-04T05:32:46.152Z,12.55
2023-01-04T05:35:13.844Z,12.56
2023-01-04T05:37:42.891Z,12.57
2023-01-04T05:40:11.168Z,12.57
2023-01-04T05:42:38.864Z,12.57
2023-01-04T05:45:07.540Z,12.57
2023-01-04T05:47:36.075Z,12.58
2023-01-04T05:50:04.490Z,12.59
2023-01-04T05:52:32.272Z,12.59
2023-01-04T05:54:59.960Z,12.60
2023-01-04T05:57:27.698Z,12.60
2023-01-04T05:59:55.495Z,12.60
2023-01-04T06:02:27.965Z,12.60
2023-01-04T06:04:59.136Z,12.61
2023-01-04T06:07:28.972Z,12.62
2023-01-04T06:09:57.471Z,12.61
2023-01-04T06:12:25.511Z,12.62
2023-01-04T06:14:53.435Z,12.63
2023-01-04T06:17:21.224Z,12.63
2023-01-04T06:19:48.934Z,12.61
2023-01-04T06:22:16.736Z,12.61
2023-01-04T06:24:44.454Z,12.61
2023-01-04T06:27:12.756Z,12.61
2023-01-04T06:29:40.520Z,12.62
2023-01-04T06:32:08.228Z,12.62
2023-01-04T06:34:36.106Z,12.62
2023-01-04T06:37:05.801Z,12.61
2023-01-04T06:39:33.513Z,12.61
2023-01-04T06:42:06.174Z,12.60
2023-01-04T06:44:34.809Z,12.61
2023-01-04T06:47:02.567Z,12.61
2023-01-04T06:49:30.337Z,12.62
2023-01-04T06:51:58.380Z,12.60
2023-01-04T06:54:26.362Z,12.60
2023-01-04T06:56:54.006Z,12.59
2023-01-04T06:59:21.708Z,12.60
2023-01-04T07:01:49.582Z,12.59
2023-01-04T07:04:17.330Z,12.59
2023-01-04T07:06:45.101Z,12.57
2023-01-04T07:09:12.806Z,12.57
2023-01-04T07:11:40.587Z,12.54
2023-01-04T07:14:08.337Z,12.53
2023-01-04T07:16:36.090Z,12.53
2023-01-04T07:19:03.861Z,12.51
2023-01-04T07:21:31.699Z,12.47
2023-01-04T07:23:59.508Z,12.43
2023-01-04T07:26:27.285Z,12.40
2023-01-04T07:29:13.741Z,12.41
2023-01-04T07:31:48.074Z,12.38
2023-01-04T07:34:18.354Z,12.39
2023-01-04T07:36:48.131Z,12.38
2023-01-04T07:39:19.893Z,12.34
2023-01-04T07:41:49.485Z,12.30
2023-01-04T07:44:18.747Z,12.26
2023-01-04T07:46:46.627Z,12.26
2023-01-04T07:49:18.475Z,12.25
2023-01-04T07:51:49.111Z,12.23
2023-01-04T07:54:18.466Z,12.22
2023-01-04T07:56:48.664Z,12.22
2023-01-04T07:59:19.543Z,12.19
2023-01-04T08:01:49.496Z,12.17
2023-01-04T08:04:22.116Z,12.15
2023-01-04T08:06:50.548Z,12.16
2023-01-04T08:09:19.079Z,12.18
2023-01-04T08:11:46.985Z,12.18
2023-01-04T08:14:14.745Z,12.19
2023-01-04T08:16:43.645Z,12.22
2023-01-04T08:19:19.111Z,12.25
2023-01-04T08:21:48.292Z,12.26
2023-01-04T08:24:18.941Z,12.28
2023-01-04T08:26:46.962Z,12.32
2023-01-04T08:29:15.359Z,12.35
2023-01-04T08:31:43.274Z,12.36
2023-01-04T08:34:11.173Z,12.39
2023-01-04T08:36:52.152Z,12.38
2023-01-04T08:39:21.650Z,12.39
2023-01-04T08:42:00.817Z,12.41
2023-01-04T08:44:35.149Z,12.40
2023-01-04T08:47:03.625Z,12.43
2023-01-04T08:49:31.409Z,12.45
2023-01-04T08:51:59.162Z,12.47
2023-01-04T08:54:26.967Z,12.49
2023-01-04T08:56:54.724Z,12.52
2023-01-04T08:59:22.407Z,12.56
2023-01-04T09:01:50.193Z,12.60
2023-01-04T09:04:18.044Z,12.63
2023-01-04T09:06:46.101Z,12.66
2023-01-04T09:09:14.886Z,12.68
2023-01-04T09:11:42.594Z,12.70
2023-01-04T09:14:11.015Z,12.70
2023-01-04T09:16:39.035Z,12.68
2023-01-04T09:19:07.856Z,12.69
2023-01-04T09:21:35.736Z,12.70
2023-01-04T09:24:03.865Z,12.71
2023-01-04T09:26:31.644Z,12.72
2023-01-04T09:28:59.297Z,12.72
2023-01-04T09:31:29.121Z,12.74
2023-01-04T09:34:16.582Z,12.75
2023-01-04T09:36:47.583Z,12.76
2023-01-04T09:39:22.579Z,12.77
2023-01-04T09:41:57.868Z,12.75
2023-01-04T09:45:21.853Z,12.74
2023-01-04T09:47:50.079Z,12.72
2023-01-04T09:51:02.584Z,12.70
2023-01-04T09:54:03.143Z,12.65
2023-01-04T09:56:37.564Z,12.63
2023-01-04T09:59:16.444Z,12.61
2023-01-04T10:01:59.594Z,12.60
2023-01-04T10:04:50.552Z,12.60
2023-01-04T10:07:28.937Z,12.64
2023-01-04T10:09:57.483Z,12.67
2023-01-04T10:12:58.035Z,12.72
2023-01-04T10:15:49.150Z,12.76
2023-01-04T10:21:49.857Z,12.84
2023-01-04T10:24:41.125Z,12.85
2023-01-04T10:27:42.923Z,12.88
2023-01-04T10:30:48.275Z,12.89
2023-01-04T10:33:49.427Z,12.93
2023-01-04T10:36:21.664Z,12.97
2023-01-04T10:39:00.265Z,12.99
2023-01-04T10:41:36.961Z,13.01
2023-01-04T10:44:14.139Z,13.02
2023-01-04T10:47:05.196Z,13.04
2023-01-04T10:49:48.495Z,13.10
2023-01-04T10:52:37.791Z,13.14
2023-01-04T10:55:22.727Z,13.16
2023-01-04T10:58:34.711Z,13.18
2023-01-04T11:01:19.602Z,13.18
2023-01-04T11:04:13.465Z,13.15
2023-01-04T11:07:02.184Z,13.14
2023-01-04T11:09:41.438Z,13.15
2023-01-04T11:12:13.249Z,13.14
2023-01-04T11:14:42.050Z,13.13
2023-01-04T11:17:12.409Z,13.15
2023-01-04T11:19:41.300Z,13.20
2023-01-04T11:22:28.255Z,13.26
2023-01-04T11:28:06.324Z,13.38
2023-01-04T11:30:59.169Z,13.46
2023-01-04T11:33:27.045Z,13.52
2023-01-04T11:35:59.081Z,13.53
2023-01-04T11:38:29.766Z,13.58
2023-01-04T11:41:06.777Z,13.60
2023-01-04T11:43:40.028Z,13.58
2023-01-04T11:46:24.338Z,13.54
2023-01-04T11:48:53.665Z,13.55
2023-01-04T11:51:26.225Z,13.57
2023-01-04T11:54:13.160Z,13.55
2023-01-04T11:56:57.005Z,13.52
2023-01-04T11:59:25.750Z,13.51
2023-01-04T12:02:50.567Z,13.49
2023-01-04T12:05:29.106Z,13.46
2023-01-04T12:07:59.320Z,13.47
2023-01-04T12:10:28.706Z,13.52
2023-01-04T12:13:01.164Z,13.52
2023-01-04T12:16:00.615Z,13.50
2023-01-04T12:18:44.174Z,13.52
2023-01-04T12:21:28.648Z,13.57
2023-01-04T12:23:56.419Z,13.65
2023-01-04T12:26:24.445Z,13.66
2023-01-04T12:29:23.921Z,13.59
2023-01-04T12:32:14.580Z,13.53
2023-01-04T12:34:47.656Z,13.49
2023-01-04T12:37:48.443Z,13.50
2023-01-04T12:40:47.779Z,13.50
2023-01-04T12:43:15.537Z,13.47
2023-01-04T12:46:10.606Z,13.43
2023-01-04T12:48:56.901Z,13.40
2023-01-04T12:51:31.502Z,13.40
2023-01-04T12:54:05.889Z,13.38
2023-01-04T12:57:24.140Z,13.36
2023-01-04T13:00:00.877Z,13.31
2023-01-04T13:02:44.132Z,13.33
2023-01-04T13:08:13.622Z,13.38
2023-01-04T13:10:49.772Z,13.36
2023-01-04T13:14:08.797Z,13.34
2023-01-04T13:16:52.487Z,13.34
2023-01-04T13:19:26.311Z,13.31
2023-01-04T13:21:55.448Z,13.30
2023-01-04T13:24:31.083Z,13.29
2023-01-04T13:27:07.481Z,13.30
2023-01-04T13:29:36.553Z,13.31
2023-01-04T13:32:25.765Z,13.30
2023-01-04T13:35:15.033Z,13.24
2023-01-04T13:37:46.675Z,13.17
2023-01-04T13:40:22.521Z,13.14
2023-01-04T13:43:12.514Z,13.09
2023-01-04T13:46:05.750Z,13.01
2023-01-04T13:48:41.219Z,12.87
2023-01-04T13:51:23.139Z,12.78
2023-01-04T13:54:05.457Z,12.69
2023-01-04T13:56:35.574Z,12.63
2023-01-04T13:59:03.517Z,12.62
2023-01-04T14:01:49.153Z,12.59
2023-01-04T14:04:26.976Z,12.59
2023-01-04T14:06:59.965Z,12.58
2023-01-04T14:09:44.753Z,12.54
2023-01-04T14:12:24.578Z,12.56
2023-01-04T14:14:58.775Z,12.55
2023-01-04T14:17:48.527Z,12.56
2023-01-04T14:20:19.341Z,12.55
2023-01-04T14:22:47.653Z,12.58
2023-01-04T14:25:33.565Z,12.64
2023-01-04T14:28:49.581Z,12.69
2023-01-04T14:31:27.316Z,12.78
2023-01-04T14:33:56.317Z,12.83
2023-01-04T14:36:28.190Z,12.89
2023-01-04T14:39:12.630Z,12.92
2023-01-04T14:41:59.882Z,12.87
2023-01-04T14:44:31.326Z,12.85
2023-01-04T14:47:03.934Z,12.85
2023-01-04T14:49:31.749Z,12.87
2023-01-04T14:52:03.276Z,12.86
2023-01-04T14:54:31.776Z,12.85
2023-01-04T14:56:59.786Z,12.83
2023-01-04T14:59:28.614Z,12.79
2023-01-04T15:01:57.998Z,12.76
2023-01-04T15:04:25.981Z,12.76
2023-01-04T15:06:57.948Z,12.75
2023-01-04T15:09:26.658Z,12.74
2023-01-04T15:11:54.751Z,12.74
2023-01-04T15:14:23.170Z,12.75
2023-01-04T15:16:51.114Z,12.73
2023-01-04T15:19:18.805Z,12.70
2023-01-04T15:21:46.586Z,12.68
2023-01-04T15:24:14.324Z,12.65
2023-01-04T15:26:43.382Z,12.61
2023-01-04T15:29:11.203Z,12.59
2023-01-04T15:31:41.420Z,12.53
2023-01-04T15:34:09.848Z,12.50
2023-01-04T15:36:40.468Z,12.45
2023-01-04T15:39:13.164Z,12.40
2023-01-04T15:41:59.737Z,12.38
2023-01-04T15:44:28.300Z,12.33
2023-01-04T15:46:56.182Z,12.29
2023-01-04T15:49:23.989Z,12.26
2023-01-04T15:51:51.805Z,12.21
2023-01-04T15:54:21.742Z,12.18
2023-01-04T15:56:49.720Z,12.15
2023-01-04T15:59:17.766Z,12.12
2023-01-04T16:01:46.614Z,12.10
2023-01-04T16:04:14.732Z,12.05
2023-01-04T16:06:42.456Z,12.00
2023-01-04T16:09:10.188Z,11.93
2023-01-04T16:11:57.941Z,11.89
2023-01-04T16:14:25.709Z,11.84
2023-01-04T16:16:53.895Z,11.81
2023-01-04T16:19:22.028Z,11.79
2023-01-04T16:21:49.850Z,11.76
2023-01-04T16:24:53.246Z,11.70
2023-01-04T16:27:05.199Z,11.66
2023-01-04T16:29:32.944Z,11.62
2023-01-04T16:32:00.767Z,11.60
2023-01-04T16:34:28.539Z,11.56
2023-01-04T16:36:56.221Z,11.55
2023-01-04T16:39:57.142Z,11.51
2023-01-04T16:42:12.087Z,11.51
2023-01-04T16:44:40.047Z,11.50
2023-01-04T16:47:07.936Z,11.46
2023-01-04T16:49:35.697Z,11.41
2023-01-04T16:52:03.891Z,11.38
2023-01-04T16:54:31.815Z,11.37
2023-01-04T16:56:59.573Z,11.38
2023-01-04T16:59:27.491Z,11.35
2023-01-04T17:01:58.181Z,11.34
2023-01-04T17:04:26.754Z,11.31
2023-01-04T17:06:57.337Z,11.31
2023-01-04T17:09:25.272Z,11.31
2023-01-04T17:15:00.748Z,11.27
2023-01-04T17:17:35.989Z,11.27
2023-01-04T17:20:06.408Z,11.23
2023-01-04T17:22:35.171Z,11.23
2023-01-04T17:25:04.824Z,11.22
2023-01-04T17:27:32.580Z,11.20
2023-01-04T17:30:00.560Z,11.17
2023-01-04T17:32:28.358Z,11.15
2023-01-04T17:34:58.043Z,11.14
2023-01-04T17:37:26.648Z,11.15
2023-01-04T17:39:54.739Z,11.16
2023-01-04T17:42:23.114Z,11.19
2023-01-04T17:44:51.316Z,11.17
2023-01-04T17:47:19.363Z,11.16
2023-01-04T17:49:47.337Z,11.14
2023-01-04T17:52:20.992Z,11.15
2023-01-04T17:54:50.816Z,11.12
2023-01-04T17:57:18.672Z,11.10
2023-01-04T17:59:46.392Z,11.13
2023-01-04T18:02:14.126Z,11.15
2023-01-04T18:04:42.063Z,11.16
2023-01-04T18:09:42.886Z,11.14
2023-01-04T18:12:10.646Z,11.13
2023-01-04T18:14:38.769Z,11.11
2023-01-04T18:17:06.562Z,11.12
2023-01-04T18:19:34.343Z,11.09
2023-01-04T18:22:02.651Z,11.07
2023-01-04T18:24:36.889Z,11.07
2023-01-04T18:27:23.214Z,11.05
2023-01-04T18:29:54.722Z,11.06
2023-01-04T18:32:24.265Z,11.05
2023-01-04T18:34:52.307Z,11.03
2023-01-04T18:37:20.380Z,11.04
2023-01-04T18:39:48.645Z,11.05
2023-01-04T18:42:17.041Z,11.02
2023-01-04T18:44:48.991Z,11.00
2023-01-04T18:47:20.416Z,10.97
2023-01-04T18:49:50.458Z,10.92
2023-01-04T18:52:18.921Z,10.87
2023-01-04T18:54:48.501Z,10.84
2023-01-04T18:57:16.690Z,10.79
2023-01-04T18:59:44.444Z,10.79
2023-01-04T19:02:19.216Z,10.81
2023-01-04T19:04:47.280Z,10.79
2023-01-04T19:07:15.030Z,10.77
2023-01-04T19:09:43.159Z,10.76
2023-01-04T19:12:11.178Z,10.76
2023-01-04T19:14:39.276Z,10.76
2023-01-04T19:17:08.360Z,10.73
2023-01-04T19:19:36.529Z,10.70
2023-01-04T19:22:04.577Z,10.70
2023-01-04T19:24:32.246Z,10.65
2023-01-04T19:27:03.245Z,10.63
2023-01-04T19:29:32.782Z,10.61
2023-01-04T19:32:00.646Z,10.58
2023-01-04T19:34:28.853Z,10.57
2023-01-04T19:36:56.719Z,10.56
2023-01-04T19:39:24.567Z,10.55
2023-01-04T19:41:52.395Z,10.53
2023-01-04T19:44:20.336Z,10.51
2023-01-04T19:46:48.165Z,10.48
2023-01-04T19:49:17.263Z,10.44
2023-01-04T19:51:46.376Z,10.43
2023-01-04T19:54:17.392Z,10.42
2023-01-04T19:56:49.550Z,10.44
2023-01-04T19:59:17.342Z,10.42
2023-01-04T20:01:45.314Z,10.44
2023-01-04T20:04:14.019Z,10.41
2023-01-04T20:06:41.905Z,10.39
2023-01-04T20:09:09.701Z,10.37
2023-01-04T20:11:37.471Z,10.35
2023-01-04T20:14:05.246Z,10.34
2023-01-04T20:16:33.152Z,10.33
2023-01-04T20:19:00.911Z,10.32
2023-01-04T20:21:28.672Z,10.32
2023-01-04T20:23:56.503Z,10.29
2023-01-04T20:26:24.410Z,10.27
2023-01-04T20:28:52.452Z,10.27
2023-01-04T20:31:20.528Z,10.30
2023-01-04T20:33:48.336Z,10.28
2023-01-04T20:36:20.885Z,10.27
2023-01-04T20:38:49.863Z,10.28
2023-01-04T20:41:21.205Z,10.24
2023-01-04T20:43:52.726Z,10.22
2023-01-04T20:46:23.453Z,10.23
2023-01-04T20:48:51.456Z,10.23
2023-01-04T20:51:23.841Z,10.20
2023-01-04T20:53:52.749Z,10.18
2023-01-04T20:56:28.486Z,10.17
2023-01-04T20:58:56.437Z,10.21
2023-01-04T21:01:25.320Z,10.23
2023-01-04T21:03:53.249Z,10.23
2023-01-04T21:06:23.224Z,10.23
2023-01-04T21:08:54.728Z,10.24
2023-01-04T21:11:23.048Z,10.24
2023-01-04T21:13:52.212Z,10.20
2023-01-04T21:16:20.150Z,10.16
2023-01-04T21:18:47.895Z,10.13
2023-01-04T21:21:18.074Z,10.13
2023-01-04T21:23:47.110Z,10.12
2023-01-04T21:26:19.040Z,10.12
2023-01-04T21:28:47.125Z,10.13
2023-01-04T21:31:23.711Z,10.12
2023-01-04T21:33:53.772Z,10.08
2023-01-04T21:36:25.298Z,10.06
2023-01-04T21:38:55.549Z,10.06
2023-01-04T21:41:25.511Z,10.01
2023-01-04T21:43:57.695Z,9.96
2023-01-04T21:46:26.586Z,9.91
2023-01-04T21:48:57.971Z,9.92
2023-01-04T21:51:25.683Z,9.94
2023-01-04T21:53:54.020Z,9.91
2023-01-04T21:56:24.366Z,9.91
2023-01-04T21:58:52.190Z,9.90
2023-01-04T22:01:34.540Z,9.89
2023-01-04T22:04:04.509Z,9.90
2023-01-04T22:06:34.149Z,9.92
2023-01-04T22:09:01.875Z,9.89
2023-01-04T22:11:30.701Z,9.89
2023-01-04T22:13:58.483Z,9.91
2023-01-04T22:16:26.321Z,9.94
2023-01-04T22:18:54.205Z,10.00
2023-01-04T22:21:26.668Z,10.02
2023-01-04T22:23:54.933Z,10.06
2023-01-04T22:26:22.938Z,10.09
2023-01-04T22:28:50.653Z,10.13
2023-01-04T22:31:18.608Z,10.19
2023-01-04T22:33:46.526Z,10.22
2023-01-04T22:36:22.264Z,10.29
2023-01-04T22:38:53.421Z,10.37
2023-01-04T22:41:25.855Z,10.38
2023-01-04T22:44:00.104Z,10.36
2023-01-04T22:46:30.046Z,10.36
2023-01-04T22:49:00.698Z,10.34
2023-01-04T22:51:30.617Z,10.38
2023-01-04T22:54:02.311Z,10.43
2023-01-04T22:56:30.073Z,10.48
2023-01-04T22:58:58.446Z,10.50
2023-01-04T23:01:30.492Z,10.53
2023-01-04T23:04:00.508Z,10.55
2023-01-04T23:06:30.612Z,10.55
2023-01-04T23:09:05.664Z,10.54
2023-01-04T23:11:36.480Z,10.55
2023-01-04T23:14:11.509Z,10.57
2023-01-04T23:16:39.700Z,10.60
2023-01-04T23:19:07.964Z,10.65
2023-01-04T23:21:35.911Z,10.69
2023-01-04T23:24:04.424Z,10.73
2023-01-04T23:26:33.489Z,10.77
2023-01-04T23:29:02.259Z,10.80
2023-01-04T23:31:32.830Z,10.83
2023-01-04T23:34:04.419Z,10.87
2023-01-04T23:36:36.891Z,10.85
2023-01-04T23:39:11.831Z,10.87
2023-01-04T23:41:45.865Z,10.88
2023-01-04T23:44:14.971Z,10.86
2023-01-04T23:46:44.036Z,10.84
2023-01-04T23:49:12.666Z,10.80
2023-01-04T23:51:42.384Z,10.78
2023-01-04T23:54:10.711Z,10.73
2023-01-04T23:56:39.098Z,10.70
2023-01-04T23:59:07.589Z,10.66
